Time;durP1;ratioP1;P1;durP2;ratioP2;P2;SDS_P1;SDS_P2;PMS_P1;PMS_P2;Temp;Humidity;BMP_temperature;BMP_pressure;BME280_temperature;BME280_humidity;BME280_pressure;Samples;Min_cycle;Max_cycle;Signal;HPM_P1;HPM_P2
2023/10/20 07:01:26;;;;;;;0.90;0.90;;;16.00;99.90;18.60;97458.00;;;;6198782;22;1427241;-66
2023/10/20 07:04:16;;;;;;;2.43;2.23;;;16.00;99.90;18.90;97475.00;;;;6277262;22;20230;-66
2023/10/20 07:06:54;;;;;;;1.53;1.43;;;16.10;99.90;18.80;97471.00;;;;6275746;22;20156;-66
2023/10/20 07:09:31;;;;;;;0.87;0.87;;;16.00;99.90;19.00;97468.00;;;;6276602;22;20648;-65
2023/10/20 07:12:18;;;;;;;1.10;1.10;;;16.00;99.90;18.50;97445.00;;;;6251936;22;20182;-66
2023/10/20 07:14:54;;;;;;;3.03;2.03;;;16.00;99.90;18.50;97469.00;;;;6277023;22;20137;-66
2023/10/20 07:17:39;;;;;;;1.00;1.00;;;16.00;99.90;18.90;97457.00;;;;6276978;22;20160;-65
2023/10/20 07:20:11;;;;;;;1.73;1.63;;;16.00;99.90;19.20;97454.00;;;;6276745;22;20191;-66
2023/10/20 07:22:49;;;;;;;0.80;0.80;;;16.10;99.90;19.50;97454.00;;;;6276472;22;20159;-66
2023/10/20 07:25:21;;;;;;;1.73;1.63;;;16.20;99.90;19.30;97429.00;;;;6276284;22;20137;-66
2023/10/20 07:27:59;;;;;;;2.37;2.27;;;16.30;99.90;19.10;97441.00;;;;6275854;22;20154;-65
2023/10/20 07:30:37;;;;;;;2.43;2.23;;;16.20;99.90;19.10;97432.00;;;;6275706;22;20489;-65
2023/10/20 07:33:07;;;;;;;1.20;1.20;;;16.30;99.90;19.00;97427.00;;;;6278421;22;20506;-66
2023/10/20 07:35:45;;;;;;;1.77;1.67;;;16.30;99.90;19.30;97411.00;;;;6276799;22;20138;-65
2023/10/20 07:38:22;;;;;;;1.83;1.73;;;16.20;99.90;18.80;97409.00;;;;6276446;22;20149;-66
2023/10/20 07:40:48;;;;;;;4.30;2.30;;;16.30;99.90;18.70;97409.00;;;;6278165;22;20151;-66
2023/10/20 07:43:22;;;;;;;1.60;1.50;;;16.10;99.90;19.40;97414.00;;;;6277988;22;20200;-65
2023/10/20 07:45:56;;;;;;;1.17;1.17;;;16.20;99.90;19.50;97419.00;;;;6276451;22;20161;-65
2023/10/20 07:48:28;;;;;;;0.97;0.97;;;16.20;99.90;19.50;97411.00;;;;6275822;22;20163;-66
2023/10/20 07:51:02;;;;;;;1.13;1.13;;;16.30;99.90;19.10;97411.00;;;;6276431;22;20173;-65
2023/10/20 07:53:31;;;;;;;2.57;2.03;;;16.30;99.90;19.50;97410.00;;;;6277468;22;20175;-65
2023/10/20 07:56:17;;;;;;;2.40;2.30;;;16.40;99.90;19.60;97407.00;;;;6276455;22;20148;-65
2023/10/20 07:58:52;;;;;;;1.60;1.50;;;16.40;99.90;19.70;97407.00;;;;6275476;22;20244;-65
2023/10/20 08:01:21;;;;;;;1.40;1.40;;;16.40;99.90;19.50;97407.00;;;;6275983;22;20168;-66
2023/10/20 08:03:49;;;;;;;1.87;1.77;;;16.50;99.90;18.90;97407.00;;;;6276292;22;20160;-66
2023/10/20 08:06:45;;;;;;;1.93;1.83;;;16.20;99.90;18.90;97414.00;;;;6275918;22;20159;-65
2023/10/20 08:09:17;;;;;;;1.13;1.13;;;16.20;99.90;19.10;97414.00;;;;6276457;22;20591;-65
2023/10/20 08:11:49;;;;;;;1.90;1.90;;;16.30;99.90;19.40;97410.00;;;;6274689;22;20162;-66
2023/10/20 08:14:26;;;;;;;1.33;1.33;;;16.30;99.90;19.50;97417.00;;;;6249710;22;20188;-65
2023/10/20 08:17:03;;;;;;;1.10;1.10;;;16.40;99.90;19.50;97407.00;;;;6276149;22;20156;-65
2023/10/20 08:19:32;;;;;;;1.10;1.10;;;16.40;99.90;19.80;97395.00;;;;6277500;22;20150;-65
2023/10/20 08:22:14;;;;;;;1.83;1.73;;;16.50;99.90;19.30;97371.00;;;;6275377;22;20596;-64
2023/10/20 08:24:52;;;;;;;1.80;1.70;;;16.40;99.90;19.30;97403.00;;;;6250637;22;20170;-63
2023/10/20 08:27:38;;;;;;;1.40;1.40;;;16.30;99.90;18.60;97406.00;;;;6273849;22;20230;-65
2023/10/20 08:30:30;;;;;;;1.90;1.80;;;16.20;99.90;19.40;97383.00;;;;6276670;22;20170;-65
2023/10/20 08:33:22;;;;;;;1.73;1.73;;;16.30;99.90;18.80;97404.00;;;;6276864;22;20660;-65
2023/10/20 08:36:22;;;;;;;8.10;4.00;;;16.20;99.90;18.80;97406.00;;;;6275853;22;20157;-65
2023/10/20 08:39:13;;;;;;;2.37;2.27;;;16.30;99.90;19.10;97408.00;;;;6276265;22;20183;-65
2023/10/20 08:42:18;;;;;;;2.80;2.60;;;16.30;99.90;19.70;97408.00;;;;6275365;22;20571;-65
2023/10/20 08:45:11;;;;;;;1.83;1.73;;;16.40;99.90;19.70;97377.00;;;;6276366;22;20239;-65
2023/10/20 08:47:44;;;;;;;0.90;0.90;;;16.50;99.90;20.10;97398.00;;;;6277273;22;20153;-65
2023/10/20 08:50:22;;;;;;;1.33;1.33;;;16.70;99.90;19.80;97369.00;;;;6276247;22;20224;-62
2023/10/20 08:53:07;;;;;;;1.23;1.23;;;16.60;99.90;20.00;97377.00;;;;6275402;22;20167;-72
2023/10/20 08:55:40;;;;;;;1.03;1.03;;;16.70;99.90;20.00;97381.00;;;;6251097;22;20610;-64
2023/10/20 08:58:15;;;;;;;3.40;3.10;;;16.70;99.90;20.10;97377.00;;;;6277244;22;20150;-64
2023/10/20 09:00:49;;;;;;;1.27;1.27;;;16.80;99.90;20.40;97354.00;;;;6276052;22;20662;-65
2023/10/20 09:03:44;;;;;;;2.17;2.07;;;16.90;99.90;19.60;97369.00;;;;6276970;22;20149;-64
2023/10/20 09:06:40;;;;;;;1.20;1.20;;;16.90;99.90;19.70;97374.00;;;;6251726;22;20154;-64
2023/10/20 09:09:06;;;;;;;4.63;2.47;;;16.70;99.90;19.80;97380.00;;;;6267739;22;20162;-64
2023/10/20 09:11:53;;;;;;;2.13;2.03;;;16.70;99.90;20.30;97371.00;;;;6276795;22;20617;-64
2023/10/20 09:14:46;;;;;;;1.23;1.23;;;17.00;99.90;20.20;97373.00;;;;6275636;22;20168;-64
2023/10/20 09:17:29;;;;;;;3.23;3.10;;;16.90;99.90;19.90;97379.00;;;;6276736;22;20147;-64
2023/10/20 09:20:07;;;;;;;1.60;1.60;;;16.80;99.90;20.10;97379.00;;;;6276994;22;20192;-68
2023/10/20 09:22:33;;;;;;;1.47;1.47;;;16.80;99.90;20.30;97366.00;;;;6277075;22;20574;-63
2023/10/20 09:25:13;;;;;;;2.40;2.23;;;16.90;99.90;20.50;97351.00;;;;6250080;22;20162;-64
2023/10/20 09:27:46;;;;;;;1.70;1.60;;;17.00;99.90;20.00;97377.00;;;;6275433;22;20335;-64
2023/10/20 09:30:15;;;;;;;1.73;1.73;;;17.10;99.90;20.20;97381.00;;;;6276755;22;20169;-63
2023/10/20 09:32:47;;;;;;;1.83;1.73;;;17.00;99.90;20.10;97378.00;;;;6249768;22;20230;-62
2023/10/20 09:35:26;;;;;;;1.87;1.87;;;16.90;99.90;20.10;97384.00;;;;6273247;22;20162;-62
2023/10/20 09:38:26;;;;;;;1.60;1.53;;;17.00;99.90;19.80;97393.00;;;;6249866;22;20228;-63
2023/10/20 09:41:17;;;;;;;1.83;1.73;;;16.80;99.90;20.30;97386.00;;;;6249850;22;20167;-63
2023/10/20 09:44:22;;;;;;;1.20;1.20;;;16.90;99.90;20.60;97366.00;;;;6248768;22;20157;-65
2023/10/20 09:47:19;;;;;;;2.60;2.40;;;17.00;99.90;19.90;97379.00;;;;6250132;22;20177;-65
2023/10/20 09:49:51;;;;;;;1.60;1.50;;;17.00;99.90;19.90;97384.00;;;;6250141;22;20189;-65
2023/10/20 09:52:17;;;;;;;1.70;1.70;;;16.90;99.90;20.40;97387.00;;;;6275080;22;20178;-65
2023/10/20 09:54:44;;;;;;;1.73;1.73;;;17.00;99.90;20.30;97387.00;;;;6274932;22;20145;-64
2023/10/20 09:57:13;;;;;;;2.13;1.73;;;17.00;99.90;19.70;97386.00;;;;6244502;22;20225;-63
2023/10/20 09:59:54;;;;;;;1.33;1.33;;;16.90;99.90;20.40;97383.00;;;;6259538;22;20254;-62
2023/10/20 10:02:31;;;;;;;1.10;1.10;;;17.00;99.90;20.30;97377.00;;;;6276381;22;20177;-63
2023/10/20 10:04:58;;;;;;;1.57;1.50;;;17.00;99.90;19.90;97378.00;;;;6276108;22;20159;-63
2023/10/20 10:07:34;;;;;;;1.20;1.20;;;16.90;99.90;20.20;97355.00;;;;6276518;22;20138;-65
2023/10/20 10:10:18;;;;;;;1.10;1.10;;;17.00;99.90;20.30;97375.00;;;;6274860;22;20151;-65
2023/10/20 10:13:05;;;;;;;1.50;1.50;;;17.00;99.90;20.70;97384.00;;;;6275153;22;20176;-65
2023/10/20 10:15:44;;;;;;;1.30;1.30;;;17.10;99.90;20.20;97384.00;;;;6275040;22;20475;-65
2023/10/20 10:18:24;;;;;;;1.20;1.20;;;17.10;99.90;20.00;97402.00;;;;6274763;22;20170;-65
2023/10/20 10:34:11;;;;;;;0.60;0.60;;;16.30;99.90;19.60;97474.00;;;;4817682;27;9497692;-65
2023/10/20 10:36:47;;;;;;;0.80;0.80;;;16.60;99.90;19.70;97441.00;;;;5010904;28;20192;-64
2023/10/20 10:39:27;;;;;;;0.90;0.90;;;16.60;99.90;19.40;97424.00;;;;5019385;28;20200;-64
2023/10/20 10:42:28;;;;;;;2.67;1.90;;;16.70;99.90;19.90;97428.00;;;;4995499;28;20277;-64
2023/10/20 10:45:58;;;;;;;1.00;1.00;;;16.60;99.90;20.30;97413.00;;;;5007500;28;20196;-64
2023/10/20 10:48:29;;;;;;;1.00;1.00;;;16.90;99.90;19.10;97410.00;;;;4969296;28;20190;-64
2023/10/20 10:51:18;;;;;;;0.90;0.90;;;16.60;99.90;19.30;97420.00;;;;5047824;28;20211;-64
2023/10/20 10:53:47;;;;;;;1.53;1.53;;;16.40;99.90;18.70;97406.00;;;;5047779;28;20241;-60
2023/10/20 10:56:19;;;;;;;1.23;1.20;;;16.20;99.90;18.80;97430.00;;;;5072833;28;20246;-61
2023/10/20 10:58:57;;;;;;;1.10;1.10;;;16.10;99.90;18.20;97435.00;;;;5110325;28;20181;-59
2023/10/20 11:01:37;;;;;;;1.00;1.00;;;16.00;99.90;18.60;97445.00;;;;5109506;28;20191;-65
2023/10/20 11:04:09;;;;;;;1.20;1.13;;;16.00;99.90;18.00;97441.00;;;;5077155;28;20233;-64
2023/10/20 11:06:49;;;;;;;1.20;1.10;;;15.80;99.90;17.80;97458.00;;;;5089018;28;20182;-65
2023/10/20 11:09:27;;;;;;;1.70;1.23;;;15.70;99.90;17.20;97468.00;;;;5093010;28;20699;-64
2023/10/20 11:12:14;;;;;;;1.13;1.00;;;15.40;99.90;17.50;97471.00;;;;5107251;28;20195;-64
2023/10/20 11:15:07;;;;;;;0.80;0.80;;;15.30;99.90;18.30;97459.00;;;;5107583;28;20239;-64
2023/10/20 11:17:50;;;;;;;1.50;0.80;;;15.60;99.90;17.10;97468.00;;;;5103696;28;20655;-64
2023/10/20 11:21:23;;;;;;;0.77;0.77;;;15.40;99.90;17.60;97473.00;;;;5107577;28;20177;-64
2023/10/20 11:23:59;;;;;;;0.70;0.70;;;15.20;99.90;17.60;97469.00;;;;5103445;28;20547;-64
2023/10/20 11:26:35;;;;;;;0.83;0.83;;;15.30;99.90;17.20;97472.00;;;;5105889;28;20194;-64
2023/10/20 11:29:07;;;;;;;0.90;0.90;;;15.20;99.90;17.80;97453.00;;;;5108015;28;20236;-64
2023/10/20 11:31:51;;;;;;;0.70;0.70;;;15.30;99.90;17.20;97456.00;;;;5090424;28;20575;-64
2023/10/20 11:34:20;;;;;;;0.80;0.80;;;15.20;99.90;17.40;97450.00;;;;5108421;28;20218;-64
2023/10/20 11:36:58;;;;;;;3.00;1.60;;;15.20;99.90;18.00;97452.00;;;;5107995;28;20200;-64
2023/10/20 11:39:59;;;;;;;1.23;1.23;;;15.30;99.90;17.90;97437.00;;;;5109686;28;20186;-64
2023/10/20 11:42:32;;;;;;;1.23;1.23;;;15.40;99.90;18.20;97433.00;;;;5009749;28;20775;-64
2023/10/20 11:45:27;;;;;;;1.10;1.10;;;15.40;99.90;18.00;97427.00;;;;5065464;28;20200;-64
2023/10/20 11:48:02;;;;;;;0.70;0.70;;;15.40;99.90;18.50;97432.00;;;;5088028;28;20311;-64
2023/10/20 11:50:37;;;;;;;1.00;1.00;;;15.50;99.90;17.90;97417.00;;;;5083720;28;20209;-64
2023/10/20 11:53:12;;;;;;;2.47;1.57;;;15.50;99.90;17.70;97424.00;;;;5074798;28;20200;-64
2023/10/20 11:55:39;;;;;;;0.90;0.90;;;15.40;99.90;18.80;97410.00;;;;5092558;28;20198;-64
2023/10/20 11:58:11;;;;;;;0.80;0.80;;;15.60;99.90;18.70;97430.00;;;;5082619;28;20188;-65
2023/10/20 12:00:41;;;;;;;1.10;1.10;;;15.50;99.90;19.40;97425.00;;;;5087773;28;20189;-64
2023/10/20 12:03:10;;;;;;;1.10;1.10;;;15.80;99.90;18.40;97424.00;;;;5087505;28;20184;-64
2023/10/20 12:05:41;;;;;;;1.20;1.20;;;15.70;99.90;19.60;97430.00;;;;5088206;28;20645;-64
2023/10/20 12:08:15;;;;;;;1.30;1.30;;;15.90;99.90;18.60;97433.00;;;;5077589;28;20637;-64
2023/10/20 12:10:44;;;;;;;1.10;1.10;;;15.80;99.90;18.40;97436.00;;;;5091083;28;20226;-64
2023/10/20 12:13:15;;;;;;;1.10;1.10;;;15.60;99.90;18.60;97438.00;;;;5093595;28;20203;-64
2023/10/20 12:15:53;;;;;;;1.30;1.30;;;15.70;99.90;19.40;97442.00;;;;5087318;28;20226;-65
2023/10/20 12:18:24;;;;;;;1.20;1.20;;;15.90;99.90;20.20;97432.00;;;;5082038;28;20185;-65
2023/10/20 12:21:00;;;;;;;1.40;1.40;;;16.30;99.90;19.80;97429.00;;;;5093081;28;20623;-65
2023/10/20 12:23:37;;;;;;;1.50;1.50;;;16.30;99.90;20.30;97417.00;;;;5077104;28;20191;-65
2023/10/20 12:26:13;;;;;;;1.80;1.80;;;16.40;99.90;20.00;97433.00;;;;5080905;28;20318;-64
2023/10/20 12:28:39;;;;;;;1.70;1.70;;;16.50;99.90;19.90;97427.00;;;;5093486;28;20716;-65
2023/10/20 12:31:06;;;;;;;1.80;1.80;;;16.50;99.90;19.10;97432.00;;;;5092599;28;20191;-65
2023/10/20 12:33:45;;;;;;;1.60;1.60;;;16.20;99.90;19.40;97437.00;;;;5076048;28;20209;-65
2023/10/20 12:36:24;;;;;;;1.60;1.60;;;16.30;99.90;18.50;97446.00;;;;5082695;28;20233;-64
2023/10/20 12:38:50;;;;;;;1.47;1.47;;;16.00;99.90;19.40;97427.00;;;;5077401;28;20229;-65
2023/10/20 12:41:22;;;;;;;1.70;1.70;;;16.10;99.90;20.00;97422.00;;;;5093765;28;20211;-65
2023/10/20 12:43:56;;;;;;;2.00;2.00;;;16.30;99.90;20.10;97441.00;;;;5073038;28;20205;-64
2023/10/20 12:46:22;;;;;;;2.00;2.00;;;16.50;99.90;19.20;97437.00;;;;5070303;28;20655;-64
2023/10/20 12:48:51;;;;;;;2.27;2.27;;;16.30;99.90;19.70;97436.00;;;;5093215;28;20202;-64
2023/10/20 12:51:28;;;;;;;2.00;2.00;;;16.30;99.90;20.60;97440.00;;;;5085770;28;20188;-64
2023/10/20 12:54:01;;;;;;;2.33;2.30;;;16.60;99.90;19.50;97450.00;;;;5089856;28;20172;-64
2023/10/20 12:56:39;;;;;;;2.30;2.30;;;16.30;99.90;19.60;97453.00;;;;5094229;28;20212;-65
2023/10/20 12:59:08;;;;;;;2.37;2.33;;;16.30;99.90;18.90;97462.00;;;;5073236;28;20221;-65
2023/10/20 13:01:50;;;;;;;2.07;2.07;;;16.10;99.90;18.80;97471.00;;;;5092885;28;20203;-64
2023/10/20 13:04:16;;;;;;;2.20;2.17;;;16.00;99.90;18.50;97478.00;;;;5094083;28;20194;-64
2023/10/20 13:06:54;;;;;;;2.03;2.03;;;15.80;99.90;18.80;97481.00;;;;5092491;28;20624;-64
2023/10/20 13:09:40;;;;;;;2.00;2.00;;;15.80;99.90;19.30;97487.00;;;;5090262;28;20303;-64
2023/10/20 13:12:30;;;;;;;2.13;2.13;;;15.80;99.90;19.30;97461.00;;;;5086196;28;20727;-64
2023/10/20 13:14:59;;;;;;;1.77;1.77;;;16.00;99.90;18.70;97493.00;;;;5089219;28;20264;-64
2023/10/20 13:17:30;;;;;;;1.70;1.70;;;15.80;99.90;19.00;97491.00;;;;5073676;28;20524;-64
2023/10/20 13:20:15;;;;;;;1.87;1.87;;;15.80;99.90;19.10;97467.00;;;;5093033;28;20535;-64
2023/10/20 13:22:51;;;;;;;1.80;1.80;;;15.80;99.90;18.70;97496.00;;;;5076782;28;20550;-64
2023/10/20 13:25:22;;;;;;;1.50;1.50;;;15.80;99.90;18.70;97499.00;;;;5083615;28;20188;-64
2023/10/20 13:28:17;;;;;;;1.40;1.40;;;15.60;99.90;18.50;97490.00;;;;5072458;28;20227;-64
2023/10/20 13:31:24;;;;;;;1.67;1.67;;;15.60;99.90;18.40;97486.00;;;;5089994;28;20539;-64
2023/10/20 13:34:08;;;;;;;1.77;1.67;;;15.60;99.90;18.00;97497.00;;;;5022778;28;20320;-64
2023/10/20 13:36:50;;;;;;;2.07;1.97;;;15.40;99.90;17.90;97504.00;;;;5086792;28;20262;-64
2023/10/20 13:39:44;;;;;;;2.57;2.47;;;15.30;99.90;18.20;97480.00;;;;5081441;28;20190;-64
2023/10/20 13:42:45;;;;;;;1.60;1.60;;;15.40;99.90;18.70;97509.00;;;;5085648;28;20194;-64
2023/10/20 13:45:24;;;;;;;1.63;1.63;;;15.50;99.90;18.50;97490.00;;;;5016573;28;20219;-64
2023/10/20 13:48:16;;;;;;;2.43;2.33;;;15.50;99.90;17.80;97517.00;;;;5022398;28;20195;-64
2023/10/20 13:51:05;;;;;;;1.50;1.50;;;15.40;99.90;18.70;97519.00;;;;4982093;28;20650;-64
2023/10/20 13:54:05;;;;;;;1.80;1.70;;;15.60;99.90;18.70;97513.00;;;;4991909;28;20521;-64
2023/10/20 13:56:36;;;;;;;2.33;2.23;;;15.60;99.90;18.40;97512.00;;;;5011273;28;20190;-64
2023/10/20 13:59:15;;;;;;;1.60;1.60;;;15.60;99.90;18.10;97514.00;;;;4978505;28;20199;-64
2023/10/20 14:02:01;;;;;;;1.70;1.70;;;15.40;99.90;18.40;97524.00;;;;5054297;28;20551;-65
2023/10/20 14:04:27;;;;;;;1.60;1.60;;;15.50;99.90;18.70;97523.00;;;;5062904;28;20201;-65
2023/10/20 14:06:58;;;;;;;1.70;1.70;;;15.60;99.90;19.00;97518.00;;;;5088955;28;20300;-64
2023/10/20 14:09:25;;;;;;;1.80;1.80;;;15.70;99.90;18.90;97534.00;;;;5083451;28;20180;-64
2023/10/20 14:12:05;;;;;;;2.10;2.00;;;15.60;99.90;19.00;97502.00;;;;5087780;28;20662;-64
2023/10/20 14:14:55;;;;;;;2.00;1.93;;;15.70;99.90;18.90;97530.00;;;;5084268;28;20204;-64
2023/10/20 14:17:48;;;;;;;1.80;1.80;;;15.70;99.90;19.00;97524.00;;;;5085122;28;20214;-64
2023/10/20 14:20:35;;;;;;;1.80;1.80;;;15.80;99.90;18.90;97527.00;;;;5071892;28;20270;-64
2023/10/20 14:23:34;;;;;;;1.93;1.83;;;15.80;99.90;18.10;97529.00;;;;5087908;28;20258;-64
2023/10/20 14:26:18;;;;;;;1.80;1.80;;;15.60;99.90;18.40;97525.00;;;;5083249;28;20187;-65
2023/10/20 14:29:03;;;;;;;2.03;1.93;;;15.60;99.90;18.70;97527.00;;;;5085335;28;20214;-65
2023/10/20 14:31:38;;;;;;;2.47;2.37;;;15.60;99.90;18.40;97522.00;;;;5085181;28;20227;-65
2023/10/20 14:34:06;;;;;;;1.30;1.30;;;15.60;99.90;18.50;97530.00;;;;5090739;28;20282;-65
2023/10/20 14:37:23;;;;;;;1.20;1.20;;;15.60;99.90;18.40;97529.00;;;;5085589;28;20176;-64
2023/10/20 14:39:56;;;;;;;1.40;1.40;;;15.60;99.90;18.60;97531.00;;;;5079386;28;20701;-64
2023/10/20 14:42:41;;;;;;;1.97;1.90;;;15.60;99.90;18.70;97530.00;;;;5089112;28;20184;-65
2023/10/20 14:45:13;;;;;;;2.47;2.37;;;15.80;99.90;19.00;97520.00;;;;5101480;28;20185;-64
2023/10/20 14:48:07;;;;;;;2.60;2.40;;;15.90;99.90;19.20;97533.00;;;;5098225;28;20217;-64
2023/10/20 14:50:44;;;;;;;1.40;1.40;;;15.90;99.90;18.90;97514.00;;;;5090031;28;20172;-64
2023/10/20 14:53:17;;;;;;;1.90;1.83;;;15.90;99.90;19.00;97528.00;;;;5092144;28;20204;-68
2023/10/20 14:56:16;;;;;;;2.07;1.97;;;15.90;99.90;19.00;97537.00;;;;5074720;28;20740;-63
2023/10/20 14:58:45;;;;;;;2.00;1.90;;;16.00;99.90;19.00;97536.00;;;;5091695;28;20193;-64
2023/10/20 15:01:16;;;;;;;2.13;2.03;;;16.00;99.90;19.00;97510.00;;;;5081459;28;20594;-64
2023/10/20 15:03:55;;;;;;;1.97;1.87;;;16.00;99.90;18.90;97514.00;;;;5083962;28;20198;-63
2023/10/20 15:06:25;;;;;;;1.67;1.63;;;16.00;99.90;18.70;97533.00;;;;5092506;28;20279;-64
2023/10/20 15:08:52;;;;;;;2.17;2.00;;;16.00;99.90;18.50;97536.00;;;;5074692;28;20190;-63
2023/10/20 15:11:27;;;;;;;3.30;3.00;;;15.90;99.90;18.60;97550.00;;;;5092838;28;20237;-64
2023/10/20 15:13:53;;;;;;;2.03;1.93;;;15.90;99.90;19.10;97536.00;;;;5073632;28;20634;-63
2023/10/20 15:16:19;;;;;;;2.13;2.00;;;15.90;99.90;19.10;97533.00;;;;5082243;28;20227;-64
2023/10/20 15:18:45;;;;;;;1.70;1.60;;;16.00;99.90;18.60;97542.00;;;;5072704;28;20186;-64
2023/10/20 15:21:30;;;;;;;1.83;1.73;;;16.00;99.90;18.80;97537.00;;;;5077906;28;20188;-64
2023/10/20 15:24:34;;;;;;;1.20;1.20;;;16.00;99.90;19.20;97541.00;;;;5084930;28;20183;-64
2023/10/20 15:27:06;;;;;;;1.10;1.10;;;15.90;99.90;19.30;97530.00;;;;5089388;28;20184;-63
2023/10/20 15:29:32;;;;;;;1.30;1.30;;;16.10;99.90;19.00;97525.00;;;;5094974;28;20191;-64
2023/10/20 15:32:36;;;;;;;1.30;1.30;;;16.00;99.90;19.00;97516.00;;;;5077276;28;20220;-64
2023/10/20 15:35:17;;;;;;;2.67;2.07;;;16.00;99.90;19.10;97522.00;;;;5092445;28;20223;-64
2023/10/20 15:38:10;;;;;;;0.90;0.90;;;16.10;99.90;19.20;97514.00;;;;5085440;28;20195;-64
2023/10/20 15:41:03;;;;;;;1.10;1.10;;;16.10;99.90;19.40;97525.00;;;;5082113;28;20597;-64
2023/10/20 15:43:35;;;;;;;1.97;1.87;;;16.20;99.90;18.90;97516.00;;;;5077567;28;20215;-64
2023/10/20 15:46:17;;;;;;;4.00;3.63;;;16.10;99.90;19.10;97530.00;;;;5089329;28;20593;-64
2023/10/20 15:48:52;;;;;;;1.17;1.17;;;16.20;99.90;19.00;97502.00;;;;5095852;28;20680;-64
2023/10/20 15:51:23;;;;;;;1.40;1.40;;;16.10;99.90;19.50;97523.00;;;;5090906;28;20234;-64
2023/10/20 15:53:54;;;;;;;1.10;1.10;;;16.20;99.90;19.20;97498.00;;;;5091407;28;20186;-64
2023/10/20 15:56:20;;;;;;;1.37;1.37;;;16.20;99.90;19.30;97526.00;;;;5091815;28;20203;-64
2023/10/20 15:58:48;;;;;;;1.23;1.23;;;16.30;99.90;19.00;97533.00;;;;5095384;28;20548;-64
2023/10/20 16:01:24;;;;;;;1.10;1.10;;;16.20;99.90;19.40;97514.00;;;;5091057;28;20182;-64
2023/10/20 16:03:53;;;;;;;1.00;1.00;;;16.20;99.90;18.50;97546.00;;;;5076061;28;20190;-64
2023/10/20 16:06:22;;;;;;;1.10;1.10;;;16.00;99.90;19.00;97548.00;;;;5074434;28;20265;-64
2023/10/20 16:08:54;;;;;;;1.50;1.50;;;16.00;99.90;19.40;97543.00;;;;5067362;28;20243;-64
2023/10/20 16:11:20;;;;;;;1.63;1.60;;;16.10;99.90;18.90;97549.00;;;;5085655;28;20198;-64
2023/10/20 16:13:54;;;;;;;1.37;1.37;;;16.10;99.90;19.10;97543.00;;;;5089630;28;20641;-64
2023/10/20 16:16:26;;;;;;;1.37;1.37;;;16.10;99.90;19.10;97552.00;;;;5091765;28;20590;-64
2023/10/20 16:18:54;;;;;;;1.37;1.33;;;16.10;99.90;18.40;97560.00;;;;5075877;28;20174;-64
2023/10/20 16:21:25;;;;;;;0.90;0.90;;;15.90;99.90;18.90;97566.00;;;;5077516;28;20189;-64
2023/10/20 16:23:54;;;;;;;1.00;1.00;;;15.90;99.90;18.80;97569.00;;;;5094373;28;20178;-64
2023/10/20 16:26:20;;;;;;;1.10;1.10;;;15.90;99.90;18.80;97558.00;;;;5092538;28;20675;-64
2023/10/20 16:28:46;;;;;;;1.07;1.07;;;15.90;99.90;19.20;97567.00;;;;5089627;28;20193;-64
2023/10/20 16:31:20;;;;;;;1.13;1.13;;;15.90;99.90;19.00;97574.00;;;;5093091;28;20188;-64
2023/10/20 16:33:52;;;;;;;1.77;1.67;;;16.00;99.90;19.30;97576.00;;;;5093565;28;20632;-64
2023/10/20 16:36:20;;;;;;;1.97;1.87;;;16.10;99.90;18.50;97583.00;;;;5094495;28;20644;-64
2023/10/20 16:38:50;;;;;;;1.10;1.10;;;15.90;99.90;18.40;97591.00;;;;5094098;28;20539;-64
2023/10/20 16:41:21;;;;;;;1.10;1.10;;;15.80;99.90;18.70;97591.00;;;;5093748;28;20182;-64
2023/10/20 16:43:56;;;;;;;1.30;1.30;;;15.80;99.90;18.40;97601.00;;;;5093545;28;20189;-64
2023/10/20 16:46:28;;;;;;;1.20;1.20;;;15.80;99.90;18.60;97586.00;;;;5094804;28;20190;-64
2023/10/20 16:48:56;;;;;;;1.00;1.00;;;15.80;99.90;18.60;97597.00;;;;5094818;28;20631;-64
2023/10/20 16:51:29;;;;;;;0.90;0.90;;;15.80;99.90;18.60;97608.00;;;;5076560;28;20216;-64
2023/10/20 16:53:55;;;;;;;1.33;1.33;;;15.80;99.90;18.70;97612.00;;;;5088831;28;20189;-64
2023/10/20 16:56:26;;;;;;;1.37;1.37;;;15.70;99.90;18.40;97604.00;;;;5075393;28;20268;-64
2023/10/20 16:59:00;;;;;;;1.17;1.17;;;15.70;99.90;18.40;97611.00;;;;5091844;28;20697;-64
2023/10/20 17:01:32;;;;;;;1.10;1.10;;;15.70;99.90;18.40;97574.00;;;;5093171;28;20190;-64
2023/10/20 17:04:09;;;;;;;1.00;1.00;;;15.60;99.90;18.70;97593.00;;;;5075760;28;20251;-64
2023/10/20 17:07:09;;;;;;;2.40;2.30;;;15.70;99.90;18.50;97613.00;;;;5092623;28;20301;-63
2023/10/20 17:10:05;;;;;;;1.63;1.63;;;15.60;99.90;18.40;97603.00;;;;5072596;28;20249;-64
2023/10/20 17:12:33;;;;;;;0.90;0.90;;;15.60;99.90;18.60;97584.00;;;;5067820;28;20242;-64
2023/10/20 17:15:03;;;;;;;1.37;1.27;;;15.60;99.90;18.80;97605.00;;;;5079258;28;20184;-64
2023/10/20 17:18:13;;;;;;;0.80;0.80;;;15.70;99.90;18.80;97614.00;;;;5092888;28;20722;-64
2023/10/20 17:21:09;;;;;;;0.90;0.90;;;15.70;99.90;18.70;97613.00;;;;5108503;28;20192;-64
2023/10/20 17:23:55;;;;;;;1.20;1.20;;;15.70;99.90;18.90;97606.00;;;;5075559;28;20240;-64
2023/10/20 17:26:44;;;;;;;0.90;0.90;;;15.70;99.90;18.60;97617.00;;;;5088238;28;20236;-64
2023/10/20 17:29:28;;;;;;;1.20;1.20;;;15.70;99.90;18.80;97593.00;;;;5085292;28;20194;-64
2023/10/20 17:36:05;;;;;;;2.03;1.93;;;15.60;99.90;18.50;97636.00;;;;5078630;28;20203;-64
2023/10/20 17:39:27;;;;;;;1.10;1.10;;;15.60;99.90;18.20;97630.00;;;;5091855;28;20183;-64
2023/10/20 17:42:36;;;;;;;1.13;1.07;;;15.50;99.90;18.40;97632.00;;;;5078052;28;20248;-64
2023/10/20 17:45:26;;;;;;;1.20;1.10;;;15.50;99.90;18.10;97624.00;;;;5075310;28;20257;-64
2023/10/20 17:48:32;;;;;;;1.47;1.43;;;15.40;99.90;18.50;97645.00;;;;5086891;28;20253;-64
2023/10/20 17:51:36;;;;;;;0.70;0.70;;;15.40;99.90;18.50;97639.00;;;;5097279;28;20198;-64
2023/10/20 17:54:25;;;;;;;1.00;1.00;;;15.40;99.90;18.30;97642.00;;;;5091828;28;20577;-64
2023/10/20 17:57:29;;;;;;;0.80;0.80;;;15.40;99.90;18.30;97643.00;;;;5092520;28;20544;-64
2023/10/20 18:00:32;;;;;;;1.93;1.83;;;15.40;99.90;18.50;97647.00;;;;5089803;28;20546;-63
2023/10/20 18:03:06;;;;;;;1.10;1.10;;;15.40;99.90;18.10;97654.00;;;;5087346;28;20192;-63
2023/10/20 18:05:39;;;;;;;0.90;0.90;;;15.30;99.90;18.50;97647.00;;;;5090974;28;20183;-63
2023/10/20 18:08:18;;;;;;;1.20;1.20;;;15.40;99.90;18.10;97650.00;;;;5092241;28;20185;-63
2023/10/20 18:11:11;;;;;;;0.90;0.90;;;15.30;99.90;17.90;97650.00;;;;5086769;28;20193;-63
2023/10/20 18:13:46;;;;;;;0.80;0.80;;;15.30;99.90;18.00;97661.00;;;;5069935;28;20864;-63
2023/10/20 18:16:25;;;;;;;1.23;1.23;;;15.20;99.90;17.90;97628.00;;;;5074441;28;20205;-63
2023/10/20 18:18:51;;;;;;;1.23;1.23;;;15.20;99.90;18.10;97648.00;;;;5078636;28;20204;-63
2023/10/20 18:21:26;;;;;;;0.80;0.80;;;15.20;99.90;18.20;97644.00;;;;5091072;28;20195;-63
2023/10/20 18:23:57;;;;;;;0.80;0.80;;;15.20;99.90;18.20;97651.00;;;;5091608;28;20198;-63
2023/10/20 18:26:26;;;;;;;1.27;1.27;;;15.20;99.90;17.80;97665.00;;;;5085535;28;20187;-64
2023/10/20 18:28:51;;;;;;;0.77;0.77;;;15.20;99.90;18.00;97641.00;;;;5075223;28;20183;-63
2023/10/20 18:31:21;;;;;;;1.20;1.10;;;15.10;99.90;18.30;97673.00;;;;5091560;28;20710;-64
2023/10/20 18:33:53;;;;;;;0.97;0.97;;;15.20;99.90;18.20;97678.00;;;;5091242;28;20261;-64
2023/10/20 18:36:28;;;;;;;1.10;1.10;;;15.20;99.90;18.30;97676.00;;;;5080723;28;20653;-63
2023/10/20 18:38:56;;;;;;;1.20;1.20;;;15.30;99.90;18.50;97673.00;;;;5084356;28;20178;-64
2023/10/20 18:41:52;;;;;;;0.90;0.90;;;15.30;99.90;17.90;97674.00;;;;5089918;28;20268;-63
2023/10/20 18:44:41;;;;;;;1.80;1.77;;;15.30;99.90;18.10;97684.00;;;;5091931;28;20277;-64
2023/10/20 18:47:52;;;;;;;0.90;0.90;;;15.20;99.90;17.90;97685.00;;;;5051861;28;20207;-63
2023/10/20 18:50:44;;;;;;;1.07;1.07;;;15.20;99.90;18.10;97692.00;;;;5077499;28;20205;-63
2023/10/20 18:53:19;;;;;;;1.10;1.10;;;15.20;99.90;17.80;97694.00;;;;5025543;28;20368;-63
2023/10/20 18:56:13;;;;;;;0.80;0.80;;;15.10;99.90;17.50;97697.00;;;;5090509;28;20194;-63
2023/10/20 18:58:59;;;;;;;0.97;0.97;;;15.00;99.90;17.60;97703.00;;;;5086075;28;20182;-64
2023/10/20 19:01:28;;;;;;;1.77;1.67;;;15.00;99.90;17.60;97715.00;;;;5079183;28;20655;-63
2023/10/20 19:03:57;;;;;;;0.80;0.80;;;15.00;99.90;18.40;97699.00;;;;5094975;28;20316;-63
2023/10/20 19:06:26;;;;;;;1.03;1.00;;;15.10;99.90;18.00;97705.00;;;;5078071;28;20182;-63